Latest Weather Observations for Horsham AWS

IDV60801

Issued at 9:05 pm EST Friday 25 July 2014 (issued every 30 minutes, with the page automatically refreshed every 10 minutes)

About weather observations | Map of weather stations | Latest weather observations for VIC | Other Formats
Station Details ID: 079100 Name: HORSHAM AERODROME Lat: -36.67 Lon: 142.17 Height: 133.8 m
Data from the previous 72 hours. | See also: Recent months at Horsham AWS
Date/Time
EST
Temp
°C
App
Temp
°C
Dew
Point
Rel
Hum
%
Delta-T
°C
Wind Press
QNH
hPa
Press
MSL
hPa
Rain
since 9 am
mm
Dir
 
Spd
km/h
Gust
km/h
Spd
kts
Gust
kts
25/09:00pm 9.6 7.2 8.8 95 0.4 W 11 15 6 8 1020.4 1020.7 1.2
25/08:30pm 10.2 7.6 9.4 95 0.4 WNW 13 17 7 9 1020.2 - 1.2
25/08:00pm 10.0 7.0 9.4 96 0.3 WNW 15 17 8 9 1020.0 - 1.2
25/07:30pm 8.2 4.8 7.6 96 0.3 NW 15 17 8 9 1019.7 - 1.2
25/07:00pm 8.9 6.0 8.3 96 0.3 NW 13 15 7 8 1019.3 - 1.2
25/06:30pm 8.6 5.6 7.8 95 0.4 NW 13 15 7 8 1018.9 - 1.2
25/06:00pm 9.2 6.3 8.3 94 0.4 NW 13 15 7 8 1018.4 1018.6 1.2
25/05:30pm 10.8 7.8 9.2 90 0.8 NW 15 17 8 9 1017.9 - 1.2
25/05:00pm 11.9 8.7 10.1 89 0.9 WNW 17 20 9 11 1017.6 - 1.2
25/04:30pm 11.6 8.5 10.3 92 0.7 WNW 17 20 9 11 1017.3 - 1.2
25/04:00pm 11.6 8.4 9.9 89 0.9 WNW 17 28 9 15 1017.1 - 1.2
25/03:30pm 12.5 10.3 10.7 89 0.9 W 13 19 7 10 1016.8 - 0.8
25/03:00pm 12.6 8.2 10.3 86 1.2 WNW 24 35 13 19 1016.5 1016.7 0.6
25/02:30pm 14.1 11.5 12.0 87 1.1 NW 17 26 9 14 1016.2 - 0.6
25/02:00pm 12.9 9.5 11.3 90 0.9 NW 20 24 11 13 1016.0 - 0.4
25/01:30pm 13.8 9.9 10.8 82 1.6 NNW 22 28 12 15 1016.0 - 0.0
25/01:11pm 13.3 9.7 10.7 84 1.4 NW 20 24 11 13 1016.1 - 0.0
25/01:00pm 13.1 9.1 10.5 84 1.4 NW 22 28 12 15 1016.2 - 0.0
25/12:30pm 13.0 8.7 10.7 86 1.2 NW 24 32 13 17 1016.3 - 0.0
25/12:00pm 12.3 8.4 10.9 91 0.7 NW 22 26 12 14 1016.6 1016.8 0.0
25/11:30am 11.8 8.2 10.5 92 0.7 NW 20 28 11 15 1016.7 - 0.0
25/11:00am 11.5 7.1 10.4 93 0.6 NW 24 30 13 16 1016.7 - 0.0
25/10:30am 11.0 6.9 10.1 94 0.5 NNW 22 28 12 15 1016.5 - 0.0
25/10:00am 10.7 6.5 9.9 95 0.4 NNW 22 28 12 15 1016.2 - 0.0
25/09:30am 10.2 5.9 9.4 95 0.4 NNW 22 28 12 15 1015.9 - 0.0
25/09:00am 10.0 6.1 9.4 96 0.3 NNW 20 28 11 15 1015.4 1015.6 1.0
25/08:30am 9.7 5.7 9.1 96 0.3 NNW 20 28 11 15 1015.1 - 1.0
25/08:00am 9.6 5.6 9.0 96 0.3 NNW 20 28 11 15 1014.7 - 1.0
25/07:30am 9.6 5.2 8.8 95 0.4 NNW 22 28 12 15 1014.4 - 1.0
25/07:00am 9.8 5.4 9.0 95 0.4 N 22 28 12 15 1013.9 - 1.0
25/06:30am 10.0 5.7 9.2 95 0.4 N 22 30 12 16 1013.6 - 1.0
25/06:00am 10.1 5.8 9.3 95 0.4 N 22 30 12 16 1013.2 1013.5 1.0
25/05:30am 10.3 6.0 9.5 95 0.4 N 22 30 12 16 1012.8 - 1.0
25/05:00am 10.3 6.7 9.7 96 0.3 N 19 24 10 13 1012.5 - 1.0
25/04:30am 10.3 6.5 9.8 97 0.3 N 20 26 11 14 1012.3 - 1.0
25/04:00am 10.3 6.7 9.8 97 0.3 N 19 22 10 12 1012.0 - 1.0
25/03:30am 10.5 6.9 10.0 97 0.3 N 19 26 10 14 1012.0 - 1.0
25/03:00am 10.5 6.9 10.0 97 0.3 N 19 24 10 13 1012.0 1012.2 1.0
25/02:51am 10.5 6.9 10.0 97 0.3 N 19 22 10 12 1011.9 - 1.0
25/02:30am 10.1 6.9 9.8 98 0.2 N 17 20 9 11 1011.8 - 1.0
25/02:00am 10.1 6.8 9.6 97 0.3 N 17 19 9 10 1011.8 - 1.0
25/01:30am 10.3 6.7 9.8 97 0.3 N 19 20 10 11 1011.6 - 1.0
25/01:00am 10.3 7.1 9.8 97 0.3 N 17 20 9 11 1011.5 - 1.0
25/12:30am 10.5 6.9 9.9 96 0.3 N 19 22 10 12 1011.5 - 1.0
25/12:20am 10.6 6.9 10.0 96 0.3 N 20 24 11 13 1011.5 - 1.0
25/12:00am 10.7 7.0 10.1 96 0.3 N 20 24 11 13 1011.6 1011.8 1.0
 
Date/Time
EST
Temp
°C
App
Temp
°C
Dew
Point
Rel
Hum
%
Delta-T
°C
Wind Press
QNH
hPa
Press
MSL
hPa
Rain
since 9 am
mm
Dir
 
Spd
km/h
Gust
km/h
Spd
kts
Gust
kts
24/11:30pm 10.6 6.5 10.0 96 0.3 N 22 26 12 14 1011.5 - 1.0
24/11:00pm 10.6 6.5 10.0 96 0.3 N 22 30 12 16 1011.3 - 0.8
24/10:30pm 10.3 6.1 9.7 96 0.3 NNE 22 26 12 14 1011.2 - 0.8
24/10:00pm 10.4 6.2 9.6 95 0.4 NNE 22 30 12 16 1011.3 - 0.8
24/09:30pm 9.9 6.5 9.1 95 0.4 NNE 17 20 9 11 1011.4 - 0.8
24/09:00pm 9.9 6.5 9.1 95 0.4 NNE 17 20 9 11 1011.3 1011.5 0.8
24/08:30pm 9.9 6.5 9.1 95 0.4 NNE 17 20 9 11 1011.3 - 0.8
24/08:00pm 9.9 6.9 9.1 95 0.4 NNE 15 19 8 10 1011.1 - 0.8
24/07:30pm 9.9 6.9 9.1 95 0.4 NNE 15 17 8 9 1010.9 - 0.8
24/07:00pm 10.4 7.4 9.2 92 0.6 NNE 15 20 8 11 1010.6 - 0.8
24/06:30pm 11.1 8.3 9.9 92 0.6 N 15 20 8 11 1010.4 - 0.4
24/06:00pm 11.2 7.9 9.6 90 0.8 N 17 20 9 11 1010.1 1010.3 0.4
24/05:30pm 11.9 7.3 9.6 86 1.2 N 24 30 13 16 1009.8 - 0.2
24/05:00pm 12.4 8.2 9.6 83 1.4 NNE 22 28 12 15 1009.3 - 0.2
24/04:30pm 12.6 9.9 10.5 87 1.1 NNE 15 19 8 10 1009.2 - 0.2
24/04:00pm 12.2 9.5 10.4 89 0.9 N 15 19 8 10 1009.0 - 0.2
24/03:30pm 12.1 5.9 9.5 84 1.3 N 32 41 17 22 1008.8 - 0.0
24/03:00pm 13.0 7.9 9.3 78 1.9 NE 26 33 14 18 1008.4 1008.6 0.0
24/02:30pm 13.4 7.5 9.1 75 2.2 NE 30 37 16 20 1008.4 - 0.0
24/02:00pm 13.7 7.2 9.0 73 2.4 NNE 33 43 18 23 1008.8 - 0.0
24/01:30pm 12.7 6.3 9.5 81 1.6 NE 33 43 18 23 1009.2 - 0.0
24/01:00pm 12.5 5.7 9.3 81 1.6 NE 35 44 19 24 1009.6 - 0.0
24/12:30pm 12.1 5.9 9.3 83 1.4 NE 32 39 17 21 1010.3 - 0.0
24/12:00pm 11.6 4.8 9.2 85 1.2 ENE 35 44 19 24 1010.6 1010.8 0.0
24/11:30am 11.0 4.5 9.1 88 1.0 ENE 33 43 18 23 1011.0 - 0.0
24/11:00am 10.1 3.6 8.9 92 0.6 ENE 33 41 18 22 1011.4 - 0.0
24/10:30am 9.5 2.9 8.4 93 0.5 ENE 33 41 18 22 1011.9 - 0.0
24/10:00am 9.1 3.0 8.3 95 0.4 E 30 39 16 21 1011.9 - 0.0
24/09:30am 8.9 2.8 8.3 96 0.3 E 30 37 16 20 1012.0 - 0.0
24/09:02am 8.6 2.5 8.2 97 0.2 E 30 39 16 21 1012.1 - 0.0
24/09:00am 8.6 2.5 8.2 97 0.2 E 30 39 16 21 1012.1 1012.3 4.4
24/08:30am 8.3 2.5 8.0 98 0.1 E 28 39 15 21 1012.1 - 4.4
24/08:29am 8.3 2.5 8.0 98 0.1 E 28 33 15 18 1012.1 - 4.4
24/08:00am 8.1 2.3 7.8 98 0.1 E 28 35 15 19 1012.1 - 4.4
24/07:30am 8.1 1.9 7.8 98 0.1 E 30 35 16 19 1012.3 - 4.4
24/07:00am 7.9 2.4 7.6 98 0.1 E 26 32 14 17 1012.6 - 4.4
24/06:30am 7.8 3.4 7.5 98 0.1 ENE 20 24 11 13 1012.8 - 4.2
24/06:00am 7.7 2.9 7.4 98 0.1 ENE 22 28 12 15 1012.9 1013.1 3.8
24/05:30am 7.5 3.1 7.2 98 0.1 ENE 20 24 11 13 1013.3 - 3.4
24/05:00am 7.4 3.1 7.0 97 0.2 ENE 19 22 10 12 1013.3 - 3.0
24/04:30am 7.4 3.1 7.0 97 0.2 ENE 19 22 10 12 1013.6 - 2.2
24/04:00am 7.3 4.1 6.7 96 0.3 ENE 13 17 7 9 1013.8 - 1.8
24/03:30am 7.3 3.7 6.7 96 0.3 E 15 17 8 9 1013.9 - 1.2
24/03:00am 7.4 3.0 6.7 95 0.3 E 19 20 10 11 1014.5 1014.7 0.8
24/02:30am 7.5 3.1 6.6 94 0.4 E 19 22 10 12 1014.7 - 0.4
24/02:00am 7.6 3.5 6.2 91 0.6 ENE 17 22 9 12 1015.2 - 0.0
24/01:30am 7.9 1.7 6.2 89 0.8 E 28 33 15 18 1014.9 - 0.0
24/01:00am 7.7 1.9 6.2 90 0.7 E 26 33 14 18 1015.2 - 0.0
24/12:30am 7.6 2.1 6.1 90 0.7 E 24 30 13 16 1015.5 - 0.0
24/12:00am 7.3 2.2 5.9 91 0.6 E 22 28 12 15 1015.7 1015.9 0.0
 
Date/Time
EST
Temp
°C
App
Temp
°C
Dew
Point
Rel
Hum
%
Delta-T
°C
Wind Press
QNH
hPa
Press
MSL
hPa
Rain
since 9 am
mm
Dir
 
Spd
km/h
Gust
km/h
Spd
kts
Gust
kts
23/11:30pm 7.3 1.8 5.9 91 0.6 E 24 28 13 15 1015.8 - 0.0
23/11:00pm 7.3 1.4 5.8 90 0.7 E 26 35 14 19 1015.9 - 0.0
23/10:30pm 7.8 1.9 5.8 87 0.9 E 26 33 14 18 1016.3 - 0.0
23/10:00pm 7.8 1.5 5.6 86 1.0 E 28 37 15 20 1016.6 - 0.0
23/09:30pm 7.8 1.4 5.4 85 1.1 E 28 35 15 19 1016.8 - 0.0
23/09:00pm 7.4 1.8 5.2 86 1.0 E 24 30 13 16 1017.1 1017.3 0.0
23/08:30pm 7.8 2.2 5.3 84 1.1 E 24 30 13 16 1017.4 - 0.0
23/08:00pm 7.9 2.3 5.2 83 1.2 E 24 30 13 16 1017.6 - 0.0
23/07:30pm 8.0 2.7 4.9 81 1.4 E 22 28 12 15 1017.7 - 0.0
23/07:00pm 7.8 3.0 4.9 82 1.3 E 19 22 10 12 1017.6 - 0.0
23/06:30pm 7.8 3.0 4.9 82 1.3 E 19 22 10 12 1017.6 - 0.0
23/06:00pm 7.2 2.8 4.7 84 1.1 E 17 19 9 10 1017.6 1017.8 0.0
23/05:30pm 7.7 3.3 4.5 80 1.4 E 17 19 9 10 1017.8 - 0.0
23/05:00pm 8.8 4.6 3.8 71 2.2 ENE 15 19 8 10 1018.3 - 0.0
23/04:30pm 10.5 5.4 4.0 64 2.9 NE 20 24 11 13 1018.1 - 0.0
23/04:00pm 10.8 5.4 4.3 64 2.9 NE 22 28 12 15 1018.0 - 0.0
23/03:30pm 10.6 5.4 5.4 70 2.4 ENE 22 28 12 15 1018.4 - 0.0
23/03:00pm 10.3 5.1 5.5 72 2.2 ENE 22 28 12 15 1018.4 1018.6 0.0
23/02:30pm 10.3 5.5 5.5 72 2.2 NE 20 26 11 14 1019.0 - 0.0
23/02:00pm 10.3 5.5 5.5 72 2.2 NE 20 28 11 15 1019.2 - 0.0
23/01:30pm 9.1 4.3 5.5 78 1.6 NE 20 28 11 15 1019.7 - 0.0
23/01:00pm 8.7 3.5 5.4 80 1.5 NE 22 28 12 15 1020.2 - 0.0
23/12:30pm 8.6 4.0 6.6 87 0.9 NE 20 24 11 13 1020.7 - 0.0
23/12:22pm 8.2 3.6 6.7 90 0.7 NE 20 26 11 14 1020.9 - 0.0
23/12:00pm 7.9 3.5 7.5 97 0.2 NE 20 24 11 13 1021.2 1021.5 0.0
23/11:30am 6.3 1.2 6.2 99 0.0 NE 22 28 12 15 1022.0 - 0.0
23/11:00am 5.8 0.6 5.7 99 0.0 NE 22 28 12 15 1022.5 - 0.0
23/10:30am 5.7 0.9 5.6 99 0.0 NE 20 24 11 13 1022.9 - 0.0
23/10:00am 4.9 0.9 4.8 99 0.0 ENE 15 20 8 11 1022.9 - 0.0
23/09:30am 3.1 -1.2 3.0 99 0.0 ENE 15 17 8 9 1023.0 - 0.0
23/09:00am 0.6 -3.0 0.5 99 0.0 ENE 9 13 5 7 1023.3 1023.5 0.0
23/08:30am -0.3 -2.3 -0.4 99 0.0 CALM 0 0 0 0 1023.1 - 0.0
23/08:00am -0.4 -2.5 -0.5 99 0.0 CALM 0 0 0 0 1023.0 - 0.0
23/07:30am -0.8 -2.9 -0.9 99 0.0 CALM 0 0 0 0 1022.9 - 0.0
23/07:00am -0.9 -3.0 -1.0 99 0.0 CALM 0 0 0 0 1022.9 - 0.0
23/06:30am -1.6 -3.8 -1.7 99 0.0 CALM 0 0 0 0 1022.7 - 0.0
23/06:00am -1.8 -4.0 -1.9 99 0.0 CALM 0 0 0 0 1022.7 1022.9 0.0
23/05:56am -1.7 -3.9 -1.8 99 0.0 CALM 0 0 0 0 1022.6 - 0.0
23/05:30am -1.9 -4.2 -2.0 99 -0.1 CALM 0 0 0 0 1022.4 - 0.0
23/05:23am -1.9 -4.2 -2.2 98 0.0 CALM 0 0 0 0 1022.4 - 0.0
23/05:00am -1.9 -4.2 -2.2 98 0.0 CALM 0 0 0 0 1022.3 - 0.0
23/04:30am -2.0 -4.3 -2.3 98 0.0 CALM 0 0 0 0 1022.6 - 0.0
23/04:00am -2.2 -4.5 -2.5 98 0.0 CALM 0 0 0 0 1022.5 - 0.0
23/03:30am -2.1 -5.5 -2.4 98 0.0 E 6 9 3 5 1022.8 - 0.0
23/03:00am -1.8 -5.8 -2.1 98 0.0 E 9 11 5 6 1023.1 1023.3 0.0
23/02:30am -2.1 -6.5 -2.4 98 0.0 E 11 13 6 7 1023.4 - 0.0
23/02:00am -1.7 -5.7 -2.0 98 0.0 ENE 9 9 5 5 1023.4 - 0.0
23/01:30am -1.1 -4.6 -1.4 98 0.1 E 7 9 4 5 1023.3 - 0.0
23/01:00am -1.2 -4.7 -1.5 98 0.0 ESE 7 11 4 6 1023.4 - 0.0
23/12:51am -1.1 -5.4 -1.4 98 0.1 ESE 11 13 6 7 1023.3 - 0.0
23/12:50am -1.0 -5.3 -1.3 98 0.1 ESE 11 13 6 7 1023.3 - 0.0
23/12:30am -0.9 -5.5 -1.2 98 0.1 SE 13 15 7 8 1023.5 - 0.0
23/12:00am -1.0 -4.9 -1.3 98 0.1 SE 9 11 5 6 1023.6 1023.8 0.0
 
Date/Time
EST
Temp
°C
App
Temp
°C
Dew
Point
Rel
Hum
%
Delta-T
°C
Wind Press
QNH
hPa
Press
MSL
hPa
Rain
since 9 am
mm
Dir
 
Spd
km/h
Gust
km/h
Spd
kts
Gust
kts
22/11:30pm -0.8 -3.3 -1.2 97 0.1 NNE 2 6 1 3 1024.0 - 0.0
22/11:27pm -0.9 -3.1 -1.3 97 0.1 CALM 0 6 0 3 1024.1 - 0.0
22/11:00pm -1.0 -3.9 -1.4 97 0.1 N 4 6 2 3 1024.2 - 0.0
22/10:30pm 1.2 -2.0 0.8 97 0.1 N 7 7 4 4 1024.1 - 0.0
22/10:00pm 1.6 -1.6 1.0 96 0.2 N 7 9 4 5 1024.2 - 0.0
22/09:30pm 2.9 0.1 2.3 96 0.2 NNW 6 9 3 5 1024.3 - 0.0

Other Formats:

Comma delimited format used in spreadsheet applications
http://www.bom.gov.au/fwo/IDV60801/IDV60801.95839.axf

JavaScript Object Notation format (JSON) in row-major order
http://www.bom.gov.au/fwo/IDV60801/IDV60801.95839.json